createdAt,value
2019-04-14T00:01:10.907Z,20.10
2019-04-14T00:03:41.182Z,19.27
2019-04-14T00:06:09.684Z,20.03
2019-04-14T00:08:39.362Z,19.47
2019-04-14T00:11:08.317Z,21.03
2019-04-14T00:13:37.092Z,21.80
2019-04-14T00:16:05.402Z,21.13
2019-04-14T00:18:33.748Z,21.27
2019-04-14T00:21:02.258Z,21.60
2019-04-14T00:23:30.465Z,21.77
2019-04-14T00:26:16.850Z,23.80
2019-04-14T00:28:44.965Z,22.87
2019-04-14T00:31:13.113Z,24.07
2019-04-14T00:33:41.258Z,22.83
2019-04-14T00:36:10.958Z,25.47
2019-04-14T00:38:41.241Z,22.60
2019-04-14T00:41:34.549Z,23.93
2019-04-14T00:43:59.974Z,24.23
2019-04-14T00:51:55.059Z,25.10
2019-04-14T00:54:23.954Z,26.70
2019-04-14T00:56:52.086Z,26.23
2019-04-14T00:59:20.160Z,28.00
2019-04-14T01:01:48.372Z,27.30
2019-04-14T01:04:16.599Z,28.43
2019-04-14T01:06:44.926Z,27.07
2019-04-14T01:09:15.040Z,27.60
2019-04-14T01:11:44.258Z,27.23
2019-04-14T01:14:12.663Z,27.53
2019-04-14T01:16:40.867Z,27.70
2019-04-14T01:19:09.086Z,26.47
2019-04-14T01:21:37.154Z,26.53
2019-04-14T01:24:05.367Z,26.97
2019-04-14T01:26:33.481Z,25.93
2019-04-14T01:29:01.533Z,28.07
2019-04-14T01:31:29.642Z,27.33
2019-04-14T01:33:57.742Z,25.90
2019-04-14T01:36:25.779Z,27.50
2019-04-14T01:38:53.847Z,28.00
2019-04-14T01:41:21.898Z,26.90
2019-04-14T01:43:49.950Z,27.00
2019-04-14T01:46:24.111Z,28.40
2019-04-14T01:48:47.789Z,26.07
2019-04-14T01:51:33.584Z,27.07
2019-04-14T01:54:03.922Z,27.80
2019-04-14T01:56:34.131Z,25.90
2019-04-14T01:59:04.443Z,26.47
2019-04-14T02:01:35.426Z,27.77
2019-04-14T02:04:03.586Z,26.57
2019-04-14T02:06:31.646Z,27.47
2019-04-14T02:09:01.073Z,26.23
2019-04-14T02:11:29.301Z,26.63
2019-04-14T02:13:57.350Z,26.50
2019-04-14T02:16:32.787Z,28.03
2019-04-14T02:18:55.782Z,26.90
2019-04-14T02:21:25.995Z,25.40
2019-04-14T02:23:54.088Z,25.53
2019-04-14T02:26:22.151Z,26.27
2019-04-14T02:28:50.455Z,26.20
2019-04-14T02:31:39.208Z,25.60
2019-04-14T02:34:15.732Z,26.70
2019-04-14T02:36:48.016Z,26.50
2019-04-14T02:39:22.469Z,25.03
2019-04-14T02:44:24.007Z,26.97
2019-04-14T02:46:47.250Z,24.53
2019-04-14T02:49:11.155Z,25.43
2019-04-14T02:51:42.481Z,26.23
2019-04-14T02:54:12.947Z,25.47
2019-04-14T02:56:45.305Z,25.93
2019-04-14T03:04:17.088Z,27.33
2019-04-14T03:06:41.540Z,24.83
2019-04-14T03:11:43.866Z,26.10
2019-04-14T03:19:55.045Z,24.10
2019-04-14T03:24:53.900Z,24.47
2019-04-14T03:27:26.568Z,24.80
2019-04-14T03:29:59.829Z,24.73
2019-04-14T03:32:53.536Z,26.37
2019-04-14T03:35:03.836Z,24.43
2019-04-14T03:39:51.252Z,25.97
2019-04-14T03:42:29.398Z,26.80
2019-04-14T03:44:56.502Z,26.80
2019-04-14T03:49:52.581Z,25.77
2019-04-14T03:52:31.631Z,24.40
2019-04-14T03:54:44.110Z,24.03
2019-04-14T03:56:59.904Z,25.03
2019-04-14T03:59:28.236Z,27.43
2019-04-14T04:01:56.696Z,27.07
2019-04-14T04:04:25.095Z,24.80
2019-04-14T04:06:53.255Z,24.27
2019-04-14T04:09:23.581Z,23.83
2019-04-14T04:11:51.989Z,23.40
2019-04-14T04:14:20.327Z,23.87
2019-04-14T04:16:59.494Z,26.07
2019-04-14T04:19:45.154Z,25.47
2019-04-14T04:22:21.505Z,24.93
2019-04-14T04:24:58.588Z,25.07
2019-04-14T04:27:44.502Z,23.93
2019-04-14T04:30:20.854Z,25.97
2019-04-14T04:32:56.401Z,25.33
2019-04-14T04:35:41.468Z,24.83
2019-04-14T04:38:20.198Z,25.87
2019-04-14T04:40:48.591Z,24.13
2019-04-14T04:43:16.893Z,24.77
2019-04-14T04:45:45.245Z,24.17
2019-04-14T04:48:13.350Z,25.60
2019-04-14T04:50:41.414Z,23.77
2019-04-14T04:53:09.465Z,23.67
2019-04-14T04:55:39.474Z,23.67
2019-04-14T04:58:07.863Z,24.90
2019-04-14T05:00:35.898Z,24.23
2019-04-14T05:03:03.973Z,23.13
2019-04-14T05:05:49.842Z,23.30
2019-04-14T05:08:17.937Z,22.40
2019-04-14T05:10:48.141Z,22.67
2019-04-14T05:13:18.403Z,23.27
2019-04-14T05:15:48.905Z,22.63
2019-04-14T05:18:17.834Z,23.07
2019-04-14T05:20:46.447Z,23.77
2019-04-14T05:23:14.792Z,22.07
2019-04-14T05:25:43.048Z,21.87
2019-04-14T05:28:11.305Z,22.73
2019-04-14T05:30:39.401Z,20.93
2019-04-14T05:33:07.569Z,26.23
2019-04-14T05:35:35.817Z,33.47
2019-04-14T05:38:04.127Z,22.40
2019-04-14T05:40:32.223Z,21.40
2019-04-14T05:43:00.318Z,21.87
2019-04-14T05:45:28.536Z,21.43
2019-04-14T05:47:56.611Z,22.17
2019-04-14T05:50:24.892Z,21.67
2019-04-14T05:52:53.540Z,19.43
2019-04-14T05:55:22.017Z,20.97
2019-04-14T05:57:50.289Z,19.57
2019-04-14T06:00:19.062Z,20.63
2019-04-14T06:02:48.401Z,20.57
2019-04-14T06:05:16.701Z,20.10
2019-04-14T06:07:44.724Z,19.07
2019-04-14T06:10:13.054Z,19.93
2019-04-14T06:12:41.155Z,19.90
2019-04-14T06:15:09.372Z,24.53
2019-04-14T06:17:37.425Z,19.10
2019-04-14T06:20:05.553Z,19.43
2019-04-14T06:22:33.675Z,19.40
2019-04-14T06:25:01.734Z,19.43
2019-04-14T06:27:29.814Z,18.37
2019-04-14T06:29:59.518Z,19.17
2019-04-14T06:32:29.235Z,17.77
2019-04-14T06:35:10.745Z,17.43
2019-04-14T06:37:43.362Z,17.70
2019-04-14T06:40:11.480Z,17.93
2019-04-14T06:42:39.530Z,16.03
2019-04-14T06:45:07.772Z,16.33
2019-04-14T06:47:35.878Z,18.80
2019-04-14T06:50:04.702Z,18.37
2019-04-14T06:52:33.722Z,15.73
2019-04-14T06:55:01.786Z,15.27
2019-04-14T06:57:30.901Z,15.57
2019-04-14T06:59:58.999Z,15.40
2019-04-14T07:02:27.075Z,15.87
2019-04-14T07:04:55.154Z,15.30
2019-04-14T07:07:23.189Z,15.33
2019-04-14T07:09:51.242Z,14.47
2019-04-14T07:12:19.372Z,15.47
2019-04-14T07:14:47.437Z,15.70
2019-04-14T07:17:15.500Z,14.20
2019-04-14T07:19:43.605Z,14.53
2019-04-14T07:22:11.657Z,13.50
2019-04-14T07:24:39.697Z,14.20
2019-04-14T07:27:07.771Z,14.23
2019-04-14T07:29:40.461Z,13.37
2019-04-14T07:32:12.950Z,13.70
2019-04-14T07:34:54.646Z,15.80
2019-04-14T07:37:41.118Z,13.63
2019-04-14T07:40:13.575Z,12.93
2019-04-14T07:42:46.416Z,14.00
2019-04-14T07:45:16.102Z,13.63
2019-04-14T07:47:45.814Z,13.50
2019-04-14T07:50:30.424Z,12.47
2019-04-14T07:58:28.765Z,13.07
2019-04-14T08:00:58.547Z,12.70
2019-04-14T08:03:34.018Z,13.00
2019-04-14T08:06:02.093Z,13.37
2019-04-14T08:08:30.135Z,12.87
2019-04-14T08:10:58.254Z,13.13
2019-04-14T08:13:26.361Z,13.17
2019-04-14T08:15:54.438Z,11.97
2019-04-14T08:18:22.497Z,12.20
2019-04-14T08:20:50.559Z,12.60
2019-04-14T08:23:18.613Z,12.50
2019-04-14T08:25:46.662Z,13.03
2019-04-14T08:28:14.714Z,14.67
2019-04-14T08:30:42.806Z,14.67
2019-04-14T08:33:10.866Z,12.93
2019-04-14T08:35:38.904Z,12.90
2019-04-14T08:38:06.966Z,12.67
2019-04-14T08:40:35.013Z,13.10
2019-04-14T08:43:16.514Z,13.03
2019-04-14T08:45:49.111Z,13.43
2019-04-14T08:48:21.983Z,12.80
2019-04-14T08:50:54.662Z,13.67
2019-04-14T08:53:24.351Z,12.97
2019-04-14T08:55:59.881Z,13.27
2019-04-14T08:58:30.475Z,13.53
2019-04-14T09:01:06.183Z,12.50
2019-04-14T09:03:50.622Z,12.53
2019-04-14T09:06:20.329Z,13.17
2019-04-14T09:08:59.215Z,12.83
2019-04-14T09:11:31.720Z,12.30
2019-04-14T09:13:59.782Z,12.07
2019-04-14T09:16:27.859Z,12.07
2019-04-14T09:19:07.057Z,12.57
2019-04-14T09:21:25.674Z,12.27
2019-04-14T09:23:53.726Z,12.23
2019-04-14T09:26:21.782Z,13.10
2019-04-14T09:28:49.828Z,10.97
2019-04-14T09:31:17.900Z,11.30
2019-04-14T09:33:45.950Z,11.30
2019-04-14T09:36:13.995Z,11.80
2019-04-14T09:38:42.051Z,11.67
2019-04-14T09:41:10.112Z,11.80
2019-04-14T09:43:38.161Z,11.67
2019-04-14T09:46:06.242Z,11.13
2019-04-14T09:48:35.223Z,11.97
2019-04-14T09:51:05.105Z,11.97
2019-04-14T09:53:33.075Z,11.00
2019-04-14T09:56:01.121Z,11.27
2019-04-14T09:58:29.212Z,11.03
2019-04-14T10:00:57.259Z,10.60
2019-04-14T10:03:25.305Z,11.13
2019-04-14T10:05:53.375Z,11.80
2019-04-14T10:08:21.499Z,10.67
2019-04-14T10:10:49.694Z,11.97
2019-04-14T10:13:17.794Z,10.83
2019-04-14T10:15:45.841Z,10.67
2019-04-14T10:18:13.893Z,10.77
2019-04-14T10:20:41.991Z,10.60
2019-04-14T10:23:10.104Z,10.33
2019-04-14T10:25:38.190Z,10.67
2019-04-14T10:28:06.249Z,10.20
2019-04-14T10:30:34.297Z,10.87
2019-04-14T10:33:02.360Z,10.43
2019-04-14T10:35:30.405Z,9.63
2019-04-14T10:37:58.455Z,9.80
2019-04-14T10:40:26.517Z,9.53
2019-04-14T10:42:54.559Z,9.67
2019-04-14T10:45:22.742Z,10.53
2019-04-14T10:47:50.799Z,10.80
2019-04-14T10:50:30.163Z,11.50
2019-04-14T10:52:48.650Z,9.87
2019-04-14T10:55:16.706Z,9.73
2019-04-14T10:57:44.773Z,10.10
2019-04-14T11:00:14.530Z,10.07
2019-04-14T11:02:42.582Z,9.57
2019-04-14T11:05:10.737Z,11.03
2019-04-14T11:07:38.781Z,10.57
2019-04-14T11:10:07.492Z,9.77
2019-04-14T11:12:35.566Z,10.57
2019-04-14T11:15:05.194Z,9.17
2019-04-14T11:17:33.246Z,10.67
2019-04-14T11:20:02.129Z,10.13
2019-04-14T11:22:30.170Z,9.60
2019-04-14T11:24:58.248Z,9.53
2019-04-14T11:27:26.297Z,10.10
2019-04-14T11:29:54.362Z,9.13
2019-04-14T11:32:30.139Z,10.07
2019-04-14T11:34:59.818Z,9.83
2019-04-14T11:37:44.687Z,10.13
2019-04-14T11:40:14.386Z,9.70
2019-04-14T11:42:51.878Z,10.07
2019-04-14T11:45:12.300Z,10.37
2019-04-14T11:47:40.339Z,10.17
2019-04-14T11:50:10.554Z,10.23
2019-04-14T11:52:41.880Z,10.33
2019-04-14T11:55:10.021Z,9.90
2019-04-14T11:57:38.152Z,9.47
2019-04-14T12:00:13.972Z,9.83
2019-04-14T12:02:59.814Z,9.87
2019-04-14T12:05:45.775Z,9.13
2019-04-14T12:08:18.460Z,9.43
2019-04-14T12:10:46.526Z,9.27
2019-04-14T12:13:14.585Z,9.87
2019-04-14T12:15:42.644Z,9.27
2019-04-14T12:18:10.690Z,9.47
2019-04-14T12:20:38.732Z,10.07
2019-04-14T12:23:06.792Z,10.03
2019-04-14T12:25:34.857Z,10.30
2019-04-14T12:28:03.165Z,10.03
2019-04-14T12:30:31.335Z,10.13
2019-04-14T12:32:59.366Z,10.67
2019-04-14T12:35:27.449Z,10.83
2019-04-14T12:37:55.519Z,10.17
2019-04-14T12:40:23.569Z,11.03
2019-04-14T12:43:08.350Z,11.00
2019-04-14T12:45:46.953Z,9.93
2019-04-14T12:48:19.658Z,9.30
2019-04-14T12:50:55.090Z,10.40
2019-04-14T12:53:23.197Z,10.53
2019-04-14T12:55:51.242Z,11.40
2019-04-14T12:58:20.948Z,10.37
2019-04-14T13:00:53.097Z,10.83
2019-04-14T13:03:21.527Z,10.47
2019-04-14T13:05:49.657Z,10.40
2019-04-14T13:08:17.728Z,10.37
2019-04-14T13:10:45.843Z,10.63
2019-04-14T13:13:13.890Z,11.37
2019-04-14T13:15:41.947Z,11.50
2019-04-14T13:18:10.066Z,10.87
2019-04-14T13:20:38.161Z,11.40
2019-04-14T13:23:06.206Z,10.83
2019-04-14T13:25:34.281Z,9.97
2019-04-14T13:28:02.329Z,10.77
2019-04-14T13:30:35.626Z,9.90
2019-04-14T13:33:03.766Z,10.37
2019-04-14T13:35:31.815Z,9.77
2019-04-14T13:37:59.864Z,11.17
2019-04-14T13:40:27.954Z,10.37
2019-04-14T13:42:56.022Z,10.93
2019-04-14T13:45:24.081Z,10.30
2019-04-14T13:47:52.131Z,10.23
2019-04-14T13:50:20.194Z,9.77
2019-04-14T13:52:48.293Z,9.43
2019-04-14T13:55:16.410Z,9.53
2019-04-14T13:57:44.545Z,9.57
2019-04-14T14:00:13.681Z,10.17
2019-04-14T14:02:42.295Z,8.37
2019-04-14T14:05:10.415Z,9.03
2019-04-14T14:07:38.550Z,9.30
2019-04-14T14:10:07.467Z,8.57
2019-04-14T14:12:37.171Z,9.37
2019-04-14T14:15:24.581Z,9.60
2019-04-14T14:17:59.673Z,8.40
2019-04-14T14:20:32.109Z,8.67
2019-04-14T14:23:19.486Z,8.17
2019-04-14T14:25:49.194Z,8.10
2019-04-14T14:28:17.232Z,8.57
2019-04-14T14:30:45.290Z,8.23
2019-04-14T14:33:13.340Z,7.97
2019-04-14T14:35:41.382Z,8.43
2019-04-14T14:38:09.490Z,8.40
2019-04-14T14:40:37.562Z,8.70
2019-04-14T14:43:05.624Z,7.70
2019-04-14T14:45:35.338Z,7.60
2019-04-14T14:48:21.538Z,8.63
2019-04-14T14:50:57.106Z,7.43
2019-04-14T14:53:25.163Z,7.67
2019-04-14T14:55:53.250Z,7.57
2019-04-14T14:58:21.298Z,7.67
2019-04-14T15:00:49.408Z,8.40
2019-04-14T15:03:17.537Z,7.87
2019-04-14T15:05:45.583Z,7.27
2019-04-14T15:08:13.703Z,8.60
2019-04-14T15:10:41.769Z,7.47
2019-04-14T15:13:09.865Z,7.43
2019-04-14T15:15:37.890Z,7.33
2019-04-14T15:18:06.003Z,7.00
2019-04-14T15:20:34.072Z,7.20
2019-04-14T15:23:02.166Z,7.17
2019-04-14T15:25:30.219Z,6.70
2019-04-14T15:27:58.269Z,7.53
2019-04-14T15:30:26.307Z,7.00
2019-04-14T15:35:28.059Z,6.93
2019-04-14T15:37:56.103Z,7.13
2019-04-14T15:40:24.145Z,7.33
2019-04-14T15:42:52.210Z,8.37
2019-04-14T15:45:20.275Z,7.47
2019-04-14T15:47:48.345Z,7.23
2019-04-14T15:50:16.388Z,8.10
2019-04-14T15:52:44.434Z,7.73
2019-04-14T15:55:13.533Z,7.87
2019-04-14T15:58:01.150Z,6.83
2019-04-14T16:00:46.106Z,7.17
2019-04-14T16:03:18.247Z,6.63
2019-04-14T16:06:04.382Z,6.63
2019-04-14T16:44:37.829Z,7.40
2019-04-14T16:47:05.883Z,8.07
2019-04-14T16:49:33.942Z,7.90
2019-04-14T16:52:12.122Z,8.23
2019-04-14T16:54:44.607Z,7.57
2019-04-14T16:57:30.389Z,7.00
2019-04-14T16:59:58.431Z,7.90
2019-04-14T17:02:26.501Z,8.33
2019-04-14T17:04:54.614Z,7.80
2019-04-14T17:07:22.717Z,8.67
2019-04-14T17:09:51.747Z,8.33
2019-04-14T17:12:19.812Z,12.47
2019-04-14T17:14:56.370Z,7.37
2019-04-14T17:17:26.161Z,8.47
2019-04-14T17:20:04.850Z,8.50
2019-04-14T17:22:43.721Z,7.97
2019-04-14T17:25:13.474Z,8.13
2019-04-14T17:27:46.143Z,7.77
2019-04-14T17:30:32.070Z,7.47
2019-04-14T17:33:04.464Z,8.47
2019-04-14T17:35:40.217Z,7.33
2019-04-14T17:38:09.905Z,7.10
2019-04-14T17:40:54.534Z,6.90
2019-04-14T17:43:32.805Z,8.80
2019-04-14T17:46:02.510Z,8.13
2019-04-14T17:48:37.607Z,7.63
2019-04-14T17:51:09.982Z,10.90
2019-04-14T17:53:42.450Z,11.93
2019-04-14T17:56:12.129Z,8.50
2019-04-14T17:58:47.568Z,7.60
2019-04-14T18:01:22.926Z,7.70
2019-04-14T18:04:01.711Z,8.17
2019-04-14T18:06:37.058Z,7.40
2019-04-14T18:09:07.419Z,8.17
2019-04-14T18:11:43.076Z,7.47
2019-04-14T18:14:24.607Z,7.47
2019-04-14T18:17:00.058Z,7.93
2019-04-14T18:19:32.391Z,10.80
2019-04-14T18:22:00.706Z,10.47
2019-04-14T18:24:41.208Z,10.37
2019-04-14T18:26:58.544Z,12.37
2019-04-14T18:29:29.552Z,12.07
2019-04-14T18:32:08.342Z,11.63
2019-04-14T18:34:54.702Z,11.57
2019-04-14T18:37:36.263Z,12.40
2019-04-14T18:40:09.351Z,11.13
2019-04-14T18:42:39.087Z,11.43
2019-04-14T18:45:09.052Z,11.03
2019-04-14T18:47:38.747Z,10.90
2019-04-14T18:50:08.443Z,11.60
2019-04-14T18:52:38.147Z,11.60
2019-04-14T18:55:07.858Z,10.13
2019-04-14T18:57:43.411Z,11.60
2019-04-14T19:00:13.262Z,11.37
2019-04-14T19:02:41.301Z,11.57
2019-04-14T19:05:09.376Z,10.97
2019-04-14T19:07:37.482Z,10.83
2019-04-14T19:10:06.807Z,10.83
2019-04-14T19:12:36.493Z,11.20
2019-04-14T19:15:13.010Z,10.50
2019-04-14T19:17:42.714Z,9.27
2019-04-14T19:20:11.737Z,9.07
2019-04-14T19:22:39.785Z,7.97
2019-04-14T19:25:08.793Z,6.67
2019-04-14T19:27:36.949Z,6.07
2019-04-14T19:30:06.950Z,7.23
2019-04-14T19:32:34.996Z,4.97
2019-04-14T19:35:03.055Z,5.63
2019-04-14T19:37:31.090Z,5.40
2019-04-14T19:39:59.151Z,4.00
2019-04-14T19:42:27.247Z,4.17
2019-04-14T19:44:55.318Z,3.20
2019-04-14T19:47:24.031Z,3.50
2019-04-14T19:49:52.108Z,3.10
2019-04-14T19:52:20.165Z,3.40
2019-04-14T19:54:48.198Z,3.20
2019-04-14T19:57:16.239Z,3.30
2019-04-14T19:59:44.399Z,3.37
2019-04-14T20:02:12.574Z,3.47
2019-04-14T20:04:40.657Z,3.10
2019-04-14T20:07:08.767Z,2.90
2019-04-14T20:09:36.842Z,3.27
2019-04-14T20:12:04.985Z,3.47
2019-04-14T20:14:33.022Z,3.20
2019-04-14T20:17:06.081Z,2.93
2019-04-14T20:19:38.319Z,2.90
2019-04-14T20:22:20.119Z,3.13
2019-04-14T20:24:52.814Z,2.97
2019-04-14T20:27:22.488Z,3.40
2019-04-14T20:29:52.174Z,3.33
2019-04-14T20:32:21.859Z,3.13
2019-04-14T20:34:49.902Z,3.60
2019-04-14T20:37:18.039Z,3.03
2019-04-14T20:39:46.086Z,3.30
2019-04-14T20:42:14.135Z,3.13
2019-04-14T20:44:42.172Z,3.80
2019-04-14T20:47:10.292Z,3.07
2019-04-14T20:49:38.360Z,3.60
2019-04-14T20:52:06.477Z,3.20
2019-04-14T20:54:34.517Z,3.60
2019-04-14T20:57:02.600Z,3.87
2019-04-14T20:59:30.651Z,3.43
2019-04-14T21:02:00.499Z,4.03
2019-04-14T21:04:48.207Z,4.00
2019-04-14T21:07:17.941Z,3.73
2019-04-14T21:09:59.633Z,4.13
2019-04-14T21:12:32.324Z,3.47
2019-04-14T21:15:04.997Z,4.00
2019-04-14T21:49:12.338Z,4.73
2019-04-14T21:51:45.744Z,5.30
2019-04-14T21:59:58.759Z,4.70
2019-04-14T22:02:50.337Z,4.20
2019-04-14T22:05:22.727Z,5.30
2019-04-14T22:08:10.458Z,5.20
2019-04-14T22:10:40.148Z,5.30
2019-04-14T22:13:19.306Z,5.47
2019-04-14T22:15:47.590Z,5.30
2019-04-14T22:18:15.774Z,5.27
2019-04-14T22:20:43.799Z,5.60
2019-04-14T22:23:12.113Z,4.80
2019-04-14T22:25:40.197Z,4.83
2019-04-14T22:28:08.247Z,5.37
2019-04-14T22:30:36.370Z,4.93
2019-04-14T22:33:04.495Z,5.37
2019-04-14T22:35:32.539Z,5.80
2019-04-14T22:38:00.625Z,6.03
2019-04-14T22:40:28.657Z,6.20
2019-04-14T22:42:56.703Z,6.50
2019-04-14T22:45:24.763Z,6.50
2019-04-14T22:47:52.906Z,6.50
2019-04-14T22:50:21.045Z,6.10
2019-04-14T22:52:49.419Z,6.00
2019-04-14T22:55:17.487Z,6.33
2019-04-14T22:57:45.537Z,6.43
2019-04-14T23:00:17.097Z,6.53
2019-04-14T23:02:58.574Z,6.03
2019-04-14T23:05:30.903Z,6.27
2019-04-14T23:08:03.601Z,7.00
2019-04-14T23:10:33.315Z,6.27
2019-04-14T23:13:20.875Z,6.57
2019-04-14T23:15:59.614Z,6.17
2019-04-14T23:18:29.316Z,6.57
2019-04-14T23:21:15.481Z,6.33
2019-04-14T23:23:50.930Z,6.60
2019-04-14T23:26:18.986Z,6.53
2019-04-14T23:28:47.054Z,6.20
2019-04-14T23:31:15.103Z,6.40
2019-04-14T23:33:43.152Z,6.70
2019-04-14T23:36:11.204Z,6.37
2019-04-14T23:38:39.294Z,6.70
2019-04-14T23:41:07.458Z,6.67
2019-04-14T23:43:35.510Z,6.03
2019-04-14T23:46:03.587Z,6.80
2019-04-14T23:48:31.632Z,6.93
2019-04-14T23:50:59.686Z,7.10
2019-04-14T23:53:27.735Z,7.70
2019-04-14T23:55:55.774Z,7.60
2019-04-14T23:58:23.931Z,7.37
